sensor_id;sensor_type;location;lat;lon;timestamp;pressure;altitude;pressure_sealevel;temperature;humidity
76940;BME280;65885;55.848;35.916;2023-07-24T00:00:10;98676.84;;;12.09;75.61
76940;BME280;65885;55.848;35.916;2023-07-24T00:02:39;98672.63;;;12.06;75.72
76940;BME280;65885;55.848;35.916;2023-07-24T00:05:07;98684.91;;;12.06;75.91
76940;BME280;65885;55.848;35.916;2023-07-24T00:07:35;98684.06;;;12.05;75.33
76940;BME280;65885;55.848;35.916;2023-07-24T00:10:03;98677.03;;;12.06;75.37
76940;BME280;65885;55.848;35.916;2023-07-24T00:12:31;98670.00;;;12.06;75.57
76940;BME280;65885;55.848;35.916;2023-07-24T00:14:58;98668.94;;;12.09;76.03
76940;BME280;65885;55.848;35.916;2023-07-24T00:17:26;98664.47;;;12.11;76.07
76940;BME280;65885;55.848;35.916;2023-07-24T00:19:54;98656.50;;;12.12;76.00
76940;BME280;65885;55.848;35.916;2023-07-24T00:22:22;98659.00;;;12.14;76.53
76940;BME280;65885;55.848;35.916;2023-07-24T00:24:49;98660.69;;;12.15;76.79
76940;BME280;65885;55.848;35.916;2023-07-24T00:27:16;98657.97;;;12.16;76.38
76940;BME280;65885;55.848;35.916;2023-07-24T00:29:44;98657.81;;;12.19;76.31
76940;BME280;65885;55.848;35.916;2023-07-24T00:32:11;98658.66;;;12.20;76.27
76940;BME280;65885;55.848;35.916;2023-07-24T00:34:39;98656.75;;;12.22;76.34
76940;BME280;65885;55.848;35.916;2023-07-24T00:37:07;98648.88;;;12.22;76.60
76940;BME280;65885;55.848;35.916;2023-07-24T00:39:35;98651.41;;;12.23;76.57
76940;BME280;65885;55.848;35.916;2023-07-24T00:42:02;98650.41;;;12.26;76.86
76940;BME280;65885;55.848;35.916;2023-07-24T00:44:29;98645.88;;;12.28;76.77
76940;BME280;65885;55.848;35.916;2023-07-24T00:46:57;98652.72;;;12.31;77.18
76940;BME280;65885;55.848;35.916;2023-07-24T00:49:24;98639.41;;;12.34;77.22
76940;BME280;65885;55.848;35.916;2023-07-24T00:51:52;98647.94;;;12.37;76.99
76940;BME280;65885;55.848;35.916;2023-07-24T00:54:22;98648.72;;;12.39;77.23
76940;BME280;65885;55.848;35.916;2023-07-24T00:56:50;98658.19;;;12.42;76.80
76940;BME280;65885;55.848;35.916;2023-07-24T00:59:18;98644.00;;;12.44;76.77
76940;BME280;65885;55.848;35.916;2023-07-24T01:01:45;98648.13;;;12.48;76.96
76940;BME280;65885;55.848;35.916;2023-07-24T01:04:14;98648.78;;;12.52;77.37
76940;BME280;65885;55.848;35.916;2023-07-24T01:06:41;98647.66;;;12.56;77.17
76940;BME280;65885;55.848;35.916;2023-07-24T01:09:08;98642.03;;;12.62;77.27
76940;BME280;65885;55.848;35.916;2023-07-24T01:11:41;98633.72;;;12.68;77.16
76940;BME280;65885;55.848;35.916;2023-07-24T01:14:18;98642.81;;;12.77;77.72
76940;BME280;65885;55.848;35.916;2023-07-24T01:16:47;98646.69;;;12.86;77.50
76940;BME280;65885;55.848;35.916;2023-07-24T01:19:20;98647.03;;;12.94;77.95
76940;BME280;65885;55.848;35.916;2023-07-24T01:22:02;98650.97;;;13.01;77.62
76940;BME280;65885;55.848;35.916;2023-07-24T01:24:48;98643.41;;;13.09;77.94
76940;BME280;65885;55.848;35.916;2023-07-24T01:27:23;98649.03;;;13.17;77.79
76940;BME280;65885;55.848;35.916;2023-07-24T01:29:51;98641.59;;;13.24;77.71
76940;BME280;65885;55.848;35.916;2023-07-24T01:32:18;98637.81;;;13.28;77.34
76940;BME280;65885;55.848;35.916;2023-07-24T01:34:46;98626.25;;;13.30;77.32
76940;BME280;65885;55.848;35.916;2023-07-24T01:37:14;98633.00;;;13.35;77.18
76940;BME280;65885;55.848;35.916;2023-07-24T01:39:43;98634.50;;;13.39;77.58
76940;BME280;65885;55.848;35.916;2023-07-24T01:42:11;98631.66;;;13.42;77.42
76940;BME280;65885;55.848;35.916;2023-07-24T01:44:41;98635.78;;;13.46;77.33
76940;BME280;65885;55.848;35.916;2023-07-24T01:47:08;98637.34;;;13.48;77.19
76940;BME280;65885;55.848;35.916;2023-07-24T01:49:35;98634.50;;;13.51;77.17
76940;BME280;65885;55.848;35.916;2023-07-24T01:52:03;98630.84;;;13.54;77.04
76940;BME280;65885;55.848;35.916;2023-07-24T01:54:31;98637.69;;;13.56;77.46
76940;BME280;65885;55.848;35.916;2023-07-24T01:56:58;98630.50;;;13.58;77.26
76940;BME280;65885;55.848;35.916;2023-07-24T01:59:25;98624.22;;;13.61;77.28
76940;BME280;65885;55.848;35.916;2023-07-24T02:01:54;98632.84;;;13.63;77.28
76940;BME280;65885;55.848;35.916;2023-07-24T02:04:21;98633.41;;;13.68;77.18
76940;BME280;65885;55.848;35.916;2023-07-24T02:06:49;98643.50;;;13.74;77.02
76940;BME280;65885;55.848;35.916;2023-07-24T02:09:17;98643.09;;;13.80;77.03
76940;BME280;65885;55.848;35.916;2023-07-24T02:11:45;98639.22;;;13.86;77.07
76940;BME280;65885;55.848;35.916;2023-07-24T02:14:13;98634.47;;;13.91;76.98
76940;BME280;65885;55.848;35.916;2023-07-24T02:16:42;98635.09;;;13.95;77.31
76940;BME280;65885;55.848;35.916;2023-07-24T02:19:11;98630.47;;;13.98;77.33
76940;BME280;65885;55.848;35.916;2023-07-24T02:21:58;98635.22;;;14.06;77.29
76940;BME280;65885;55.848;35.916;2023-07-24T02:24:25;98631.31;;;14.11;77.08
76940;BME280;65885;55.848;35.916;2023-07-24T02:26:53;98631.84;;;14.16;77.21
76940;BME280;65885;55.848;35.916;2023-07-24T02:29:20;98629.63;;;14.23;77.13
76940;BME280;65885;55.848;35.916;2023-07-24T02:31:48;98635.44;;;14.28;77.48
76940;BME280;65885;55.848;35.916;2023-07-24T02:34:17;98628.03;;;14.33;77.21
76940;BME280;65885;55.848;35.916;2023-07-24T02:36:44;98635.50;;;14.39;77.26
76940;BME280;65885;55.848;35.916;2023-07-24T02:39:12;98629.84;;;14.46;77.16
76940;BME280;65885;55.848;35.916;2023-07-24T02:41:39;98632.06;;;14.52;77.33
76940;BME280;65885;55.848;35.916;2023-07-24T02:44:06;98637.72;;;14.58;77.21
76940;BME280;65885;55.848;35.916;2023-07-24T02:46:33;98637.28;;;14.64;77.12
76940;BME280;65885;55.848;35.916;2023-07-24T02:49:01;98636.00;;;14.70;77.39
76940;BME280;65885;55.848;35.916;2023-07-24T02:51:30;98633.91;;;14.75;77.00
76940;BME280;65885;55.848;35.916;2023-07-24T02:53:57;98627.31;;;14.81;76.99
76940;BME280;65885;55.848;35.916;2023-07-24T02:56:24;98633.97;;;14.86;76.80
76940;BME280;65885;55.848;35.916;2023-07-24T02:58:51;98643.34;;;14.90;76.76
76940;BME280;65885;55.848;35.916;2023-07-24T03:01:19;98638.56;;;14.95;76.64
76940;BME280;65885;55.848;35.916;2023-07-24T03:03:46;98641.00;;;14.98;76.56
76940;BME280;65885;55.848;35.916;2023-07-24T03:06:15;98638.84;;;15.04;76.37
76940;BME280;65885;55.848;35.916;2023-07-24T03:08:45;98644.88;;;15.06;76.23
76940;BME280;65885;55.848;35.916;2023-07-24T03:11:12;98640.94;;;15.11;76.09
76940;BME280;65885;55.848;35.916;2023-07-24T03:13:40;98638.22;;;15.13;76.07
76940;BME280;65885;55.848;35.916;2023-07-24T03:16:08;98643.25;;;15.16;76.05
76940;BME280;65885;55.848;35.916;2023-07-24T03:18:34;98648.22;;;15.20;76.04
76940;BME280;65885;55.848;35.916;2023-07-24T03:21:02;98635.59;;;15.24;76.16
76940;BME280;65885;55.848;35.916;2023-07-24T03:23:30;98644.03;;;15.29;76.23
76940;BME280;65885;55.848;35.916;2023-07-24T03:25:59;98641.91;;;15.34;76.03
76940;BME280;65885;55.848;35.916;2023-07-24T03:28:26;98639.75;;;15.39;76.09
76940;BME280;65885;55.848;35.916;2023-07-24T03:30:53;98641.94;;;15.45;76.12
76940;BME280;65885;55.848;35.916;2023-07-24T03:33:21;98641.50;;;15.51;76.16
76940;BME280;65885;55.848;35.916;2023-07-24T03:35:48;98636.47;;;15.60;76.15
76940;BME280;65885;55.848;35.916;2023-07-24T03:38:15;98641.22;;;15.67;76.04
76940;BME280;65885;55.848;35.916;2023-07-24T03:40:43;98636.31;;;15.74;76.27
76940;BME280;65885;55.848;35.916;2023-07-24T03:43:12;98640.06;;;15.82;76.19
76940;BME280;65885;55.848;35.916;2023-07-24T03:45:39;98636.72;;;15.92;76.34
76940;BME280;65885;55.848;35.916;2023-07-24T03:48:08;98632.41;;;16.02;76.32
76940;BME280;65885;55.848;35.916;2023-07-24T03:50:35;98634.22;;;16.13;76.39
76940;BME280;65885;55.848;35.916;2023-07-24T03:53:02;98638.69;;;16.23;76.39
76940;BME280;65885;55.848;35.916;2023-07-24T03:55:29;98637.88;;;16.34;76.35
76940;BME280;65885;55.848;35.916;2023-07-24T03:57:57;98641.34;;;16.46;76.12
76940;BME280;65885;55.848;35.916;2023-07-24T04:00:25;98635.31;;;16.55;76.29
76940;BME280;65885;55.848;35.916;2023-07-24T04:02:53;98632.81;;;16.64;75.88
76940;BME280;65885;55.848;35.916;2023-07-24T04:05:20;98633.91;;;16.73;75.73
76940;BME280;65885;55.848;35.916;2023-07-24T04:07:48;98636.78;;;16.81;75.46
76940;BME280;65885;55.848;35.916;2023-07-24T04:10:15;98635.06;;;16.91;75.65
76940;BME280;65885;55.848;35.916;2023-07-24T04:12:43;98631.44;;;17.04;75.54
76940;BME280;65885;55.848;35.916;2023-07-24T04:15:10;98636.69;;;17.15;75.21
76940;BME280;65885;55.848;35.916;2023-07-24T04:17:39;98628.25;;;17.21;74.63
76940;BME280;65885;55.848;35.916;2023-07-24T04:20:08;98616.31;;;17.27;74.14
76940;BME280;65885;55.848;35.916;2023-07-24T04:22:36;98631.94;;;17.30;73.82
76940;BME280;65885;55.848;35.916;2023-07-24T04:25:03;98630.03;;;17.32;73.61
76940;BME280;65885;55.848;35.916;2023-07-24T04:27:31;98620.00;;;17.35;73.52
76940;BME280;65885;55.848;35.916;2023-07-24T04:29:58;98613.50;;;17.39;73.87
76940;BME280;65885;55.848;35.916;2023-07-24T04:32:26;98614.78;;;17.45;73.73
76940;BME280;65885;55.848;35.916;2023-07-24T04:34:55;98619.84;;;17.48;73.71
76940;BME280;65885;55.848;35.916;2023-07-24T04:37:22;98616.78;;;17.53;73.45
76940;BME280;65885;55.848;35.916;2023-07-24T04:39:49;98618.25;;;17.57;73.02
76940;BME280;65885;55.848;35.916;2023-07-24T04:42:16;98616.88;;;17.62;73.03
76940;BME280;65885;55.848;35.916;2023-07-24T04:44:44;98613.84;;;17.67;72.54
76940;BME280;65885;55.848;35.916;2023-07-24T04:47:11;98615.03;;;17.74;72.71
76940;BME280;65885;55.848;35.916;2023-07-24T04:49:38;98617.03;;;17.82;72.73
76940;BME280;65885;55.848;35.916;2023-07-24T04:52:08;98608.44;;;17.89;72.09
76940;BME280;65885;55.848;35.916;2023-07-24T04:54:35;98609.59;;;17.96;72.08
76940;BME280;65885;55.848;35.916;2023-07-24T04:57:03;98606.28;;;18.04;71.92
76940;BME280;65885;55.848;35.916;2023-07-24T04:59:30;98617.09;;;18.12;71.83
76940;BME280;65885;55.848;35.916;2023-07-24T05:01:57;98611.13;;;18.20;71.78
76940;BME280;65885;55.848;35.916;2023-07-24T05:04:24;98609.75;;;18.25;71.76
76940;BME280;65885;55.848;35.916;2023-07-24T05:06:52;98608.38;;;18.31;71.68
76940;BME280;65885;55.848;35.916;2023-07-24T05:09:21;98613.19;;;18.37;71.56
76940;BME280;65885;55.848;35.916;2023-07-24T05:11:48;98602.56;;;18.37;70.98
76940;BME280;65885;55.848;35.916;2023-07-24T05:14:16;98610.38;;;18.39;70.69
76940;BME280;65885;55.848;35.916;2023-07-24T05:16:43;98603.25;;;18.39;70.68
76940;BME280;65885;55.848;35.916;2023-07-24T05:19:10;98602.28;;;18.40;70.75
76940;BME280;65885;55.848;35.916;2023-07-24T05:21:37;98605.63;;;18.42;70.98
76940;BME280;65885;55.848;35.916;2023-07-24T05:24:05;98601.53;;;18.59;71.44
76940;BME280;65885;55.848;35.916;2023-07-24T05:26:33;98605.81;;;18.91;70.94
76940;BME280;65885;55.848;35.916;2023-07-24T05:29:01;98601.41;;;19.20;69.85
76940;BME280;65885;55.848;35.916;2023-07-24T05:31:28;98601.25;;;19.51;68.93
76940;BME280;65885;55.848;35.916;2023-07-24T05:33:55;98603.78;;;19.81;67.70
76940;BME280;65885;55.848;35.916;2023-07-24T05:36:42;98604.78;;;20.17;66.35
76940;BME280;65885;55.848;35.916;2023-07-24T05:39:09;98600.22;;;20.47;65.48
76940;BME280;65885;55.848;35.916;2023-07-24T05:41:38;98590.41;;;20.75;64.33
76940;BME280;65885;55.848;35.916;2023-07-24T05:44:05;98603.34;;;20.97;63.86
76940;BME280;65885;55.848;35.916;2023-07-24T05:46:32;98600.22;;;21.20;63.27
76940;BME280;65885;55.848;35.916;2023-07-24T05:49:00;98590.28;;;21.40;63.06
76940;BME280;65885;55.848;35.916;2023-07-24T05:51:27;98593.78;;;21.58;62.86
76940;BME280;65885;55.848;35.916;2023-07-24T05:53:54;98592.78;;;21.77;63.04
76940;BME280;65885;55.848;35.916;2023-07-24T05:56:22;98593.72;;;21.94;62.77
76940;BME280;65885;55.848;35.916;2023-07-24T05:58:51;98592.31;;;22.07;61.86
76940;BME280;65885;55.848;35.916;2023-07-24T06:01:18;98594.06;;;22.17;61.64
76940;BME280;65885;55.848;35.916;2023-07-24T06:03:46;98592.59;;;22.22;61.10
76940;BME280;65885;55.848;35.916;2023-07-24T06:06:13;98593.78;;;22.28;61.47
76940;BME280;65885;55.848;35.916;2023-07-24T06:08:41;98587.13;;;22.32;60.75
76940;BME280;65885;55.848;35.916;2023-07-24T06:11:08;98583.78;;;22.30;60.49
76940;BME280;65885;55.848;35.916;2023-07-24T06:13:36;98589.13;;;22.30;60.98
76940;BME280;65885;55.848;35.916;2023-07-24T06:16:05;98586.47;;;22.30;61.03
76940;BME280;65885;55.848;35.916;2023-07-24T06:18:33;98583.78;;;22.30;61.14
76940;BME280;65885;55.848;35.916;2023-07-24T06:21:00;98582.63;;;22.32;61.08
76940;BME280;65885;55.848;35.916;2023-07-24T06:23:29;98578.13;;;22.33;61.46
76940;BME280;65885;55.848;35.916;2023-07-24T06:25:56;98585.66;;;22.37;61.37
76940;BME280;65885;55.848;35.916;2023-07-24T06:28:23;98576.31;;;22.41;61.18
76940;BME280;65885;55.848;35.916;2023-07-24T06:30:52;98573.38;;;22.53;61.31
76940;BME280;65885;55.848;35.916;2023-07-24T06:33:21;98575.09;;;22.70;60.44
76940;BME280;65885;55.848;35.916;2023-07-24T06:35:50;98567.75;;;22.72;60.30
76940;BME280;65885;55.848;35.916;2023-07-24T06:38:18;98565.88;;;22.64;60.00
76940;BME280;65885;55.848;35.916;2023-07-24T06:40:47;98574.31;;;22.43;60.37
76940;BME280;65885;55.848;35.916;2023-07-24T06:43:15;98570.66;;;22.10;60.34
76940;BME280;65885;55.848;35.916;2023-07-24T06:45:42;98567.69;;;21.70;61.01
76940;BME280;65885;55.848;35.916;2023-07-24T06:48:09;98570.00;;;21.29;61.13
76940;BME280;65885;55.848;35.916;2023-07-24T06:50:38;98567.91;;;20.87;62.01
76940;BME280;65885;55.848;35.916;2023-07-24T06:53:06;98568.13;;;20.48;63.06
76940;BME280;65885;55.848;35.916;2023-07-24T06:55:33;98569.63;;;20.14;63.94
76940;BME280;65885;55.848;35.916;2023-07-24T06:58:01;98564.53;;;19.83;64.90
76940;BME280;65885;55.848;35.916;2023-07-24T07:00:28;98566.97;;;19.57;65.62
76940;BME280;65885;55.848;35.916;2023-07-24T07:02:56;98566.13;;;19.37;66.57
76940;BME280;65885;55.848;35.916;2023-07-24T07:05:24;98558.44;;;19.15;66.93
76940;BME280;65885;55.848;35.916;2023-07-24T07:07:52;98559.13;;;18.98;67.68
76940;BME280;65885;55.848;35.916;2023-07-24T07:10:20;98562.19;;;18.83;68.16
76940;BME280;65885;55.848;35.916;2023-07-24T07:12:47;98552.78;;;18.70;68.65
76940;BME280;65885;55.848;35.916;2023-07-24T07:15:14;98557.31;;;18.58;68.90
76940;BME280;65885;55.848;35.916;2023-07-24T07:17:42;98557.44;;;18.47;69.36
76940;BME280;65885;55.848;35.916;2023-07-24T07:20:09;98556.56;;;18.37;69.73
76940;BME280;65885;55.848;35.916;2023-07-24T07:22:37;98554.69;;;18.27;70.15
76940;BME280;65885;55.848;35.916;2023-07-24T07:25:07;98558.03;;;18.20;70.25
76940;BME280;65885;55.848;35.916;2023-07-24T07:27:34;98561.34;;;18.12;70.70
76940;BME280;65885;55.848;35.916;2023-07-24T07:30:01;98555.88;;;18.04;70.65
76940;BME280;65885;55.848;35.916;2023-07-24T07:32:29;98554.72;;;17.97;71.03
76940;BME280;65885;55.848;35.916;2023-07-24T07:34:57;98550.78;;;17.91;71.34
76940;BME280;65885;55.848;35.916;2023-07-24T07:37:24;98552.84;;;17.88;71.65
76940;BME280;65885;55.848;35.916;2023-07-24T07:39:52;98556.03;;;17.82;71.63
76940;BME280;65885;55.848;35.916;2023-07-24T07:42:20;98552.81;;;17.78;71.98
76940;BME280;65885;55.848;35.916;2023-07-24T07:44:48;98549.56;;;17.74;72.03
76940;BME280;65885;55.848;35.916;2023-07-24T07:47:15;98533.19;;;17.69;72.17
76940;BME280;65885;55.848;35.916;2023-07-24T07:49:43;98537.75;;;17.67;72.27
76940;BME280;65885;55.848;35.916;2023-07-24T07:52:10;98541.53;;;17.65;72.46
76940;BME280;65885;55.848;35.916;2023-07-24T07:54:38;98538.16;;;17.63;72.78
76940;BME280;65885;55.848;35.916;2023-07-24T07:57:05;98532.72;;;17.64;72.99
76940;BME280;65885;55.848;35.916;2023-07-24T07:59:34;98536.69;;;17.70;73.56
76940;BME280;65885;55.848;35.916;2023-07-24T08:02:02;98529.44;;;17.93;74.11
76940;BME280;65885;55.848;35.916;2023-07-24T08:04:29;98527.19;;;18.28;74.02
76940;BME280;65885;55.848;35.916;2023-07-24T08:06:57;98510.41;;;18.68;73.09
76940;BME280;65885;55.848;35.916;2023-07-24T08:09:24;98512.81;;;19.10;71.45
76940;BME280;65885;55.848;35.916;2023-07-24T08:11:52;98510.94;;;19.49;70.04
76940;BME280;65885;55.848;35.916;2023-07-24T08:14:19;98508.34;;;19.86;68.72
76940;BME280;65885;55.848;35.916;2023-07-24T08:16:49;98494.41;;;20.12;67.67
76940;BME280;65885;55.848;35.916;2023-07-24T08:19:17;98487.59;;;20.27;67.28
76940;BME280;65885;55.848;35.916;2023-07-24T08:21:44;98493.00;;;20.35;66.99
76940;BME280;65885;55.848;35.916;2023-07-24T08:24:13;98483.56;;;20.50;66.65
76940;BME280;65885;55.848;35.916;2023-07-24T08:26:40;98475.22;;;20.63;66.18
76940;BME280;65885;55.848;35.916;2023-07-24T08:29:08;98472.81;;;20.78;65.67
76940;BME280;65885;55.848;35.916;2023-07-24T08:31:35;98473.44;;;20.90;65.20
76940;BME280;65885;55.848;35.916;2023-07-24T08:34:04;98473.22;;;21.01;64.94
76940;BME280;65885;55.848;35.916;2023-07-24T08:36:32;98462.16;;;21.14;64.39
76940;BME280;65885;55.848;35.916;2023-07-24T08:38:59;98463.38;;;21.19;63.69
76940;BME280;65885;55.848;35.916;2023-07-24T08:41:27;98455.22;;;21.21;63.64
76940;BME280;65885;55.848;35.916;2023-07-24T08:43:54;98443.69;;;21.20;63.56
76940;BME280;65885;55.848;35.916;2023-07-24T08:46:22;98454.75;;;21.25;63.41
76940;BME280;65885;55.848;35.916;2023-07-24T08:48:49;98452.63;;;21.29;62.89
76940;BME280;65885;55.848;35.916;2023-07-24T08:51:18;98445.16;;;21.32;62.31
76940;BME280;65885;55.848;35.916;2023-07-24T08:53:47;98444.38;;;21.40;61.73
76940;BME280;65885;55.848;35.916;2023-07-24T08:56:15;98440.44;;;21.52;61.56
76940;BME280;65885;55.848;35.916;2023-07-24T08:58:43;98439.84;;;21.67;61.66
76940;BME280;65885;55.848;35.916;2023-07-24T09:01:10;98441.09;;;21.80;60.95
76940;BME280;65885;55.848;35.916;2023-07-24T09:03:37;98442.34;;;21.94;60.11
76940;BME280;65885;55.848;35.916;2023-07-24T09:06:05;98442.88;;;22.06;59.91
76940;BME280;65885;55.848;35.916;2023-07-24T09:08:36;98430.28;;;22.16;59.69
76940;BME280;65885;55.848;35.916;2023-07-24T09:11:04;98434.63;;;22.25;59.33
76940;BME280;65885;55.848;35.916;2023-07-24T09:13:32;98429.47;;;22.32;58.49
76940;BME280;65885;55.848;35.916;2023-07-24T09:16:00;98426.16;;;22.38;58.43
76940;BME280;65885;55.848;35.916;2023-07-24T09:18:37;98428.03;;;22.46;58.49
76940;BME280;65885;55.848;35.916;2023-07-24T09:21:05;98424.00;;;22.58;57.80
76940;BME280;65885;55.848;35.916;2023-07-24T09:30:57;98415.56;;;22.87;57.08
76940;BME280;65885;55.848;35.916;2023-07-24T09:33:35;98407.03;;;22.91;56.67
76940;BME280;65885;55.848;35.916;2023-07-24T09:36:03;98403.69;;;22.89;57.09
76940;BME280;65885;55.848;35.916;2023-07-24T09:38:32;98404.34;;;22.75;56.90
76940;BME280;65885;55.848;35.916;2023-07-24T09:41:01;98411.84;;;22.63;57.89
76940;BME280;65885;55.848;35.916;2023-07-24T09:43:30;98405.00;;;22.61;57.98
76940;BME280;65885;55.848;35.916;2023-07-24T09:46:00;98393.78;;;22.65;58.27
76940;BME280;65885;55.848;35.916;2023-07-24T09:48:27;98402.31;;;22.69;57.78
76940;BME280;65885;55.848;35.916;2023-07-24T09:50:56;98392.78;;;22.58;57.28
76940;BME280;65885;55.848;35.916;2023-07-24T09:53:32;98396.59;;;22.39;57.27
76940;BME280;65885;55.848;35.916;2023-07-24T09:56:03;98392.03;;;22.15;57.54
76940;BME280;65885;55.848;35.916;2023-07-24T09:58:33;98393.63;;;21.92;58.10
76940;BME280;65885;55.848;35.916;2023-07-24T10:01:04;98390.34;;;21.72;58.61
76940;BME280;65885;55.848;35.916;2023-07-24T10:03:34;98389.28;;;21.57;59.60
76940;BME280;65885;55.848;35.916;2023-07-24T10:06:01;98393.75;;;21.48;59.87
76940;BME280;65885;55.848;35.916;2023-07-24T10:08:29;98384.69;;;21.41;59.96
76940;BME280;65885;55.848;35.916;2023-07-24T10:10:58;98380.16;;;21.33;60.38
76940;BME280;65885;55.848;35.916;2023-07-24T10:13:27;98373.59;;;21.28;60.50
76940;BME280;65885;55.848;35.916;2023-07-24T10:15:56;98373.91;;;21.25;61.04
76940;BME280;65885;55.848;35.916;2023-07-24T10:18:27;98373.19;;;21.23;61.51
76940;BME280;65885;55.848;35.916;2023-07-24T10:21:00;98366.53;;;21.19;61.47
76940;BME280;65885;55.848;35.916;2023-07-24T10:23:28;98372.41;;;21.04;61.40
76940;BME280;65885;55.848;35.916;2023-07-24T10:26:02;98369.59;;;20.80;61.63
76940;BME280;65885;55.848;35.916;2023-07-24T10:28:31;98368.31;;;20.48;62.30
76940;BME280;65885;55.848;35.916;2023-07-24T10:30:58;98355.03;;;20.21;63.47
76940;BME280;65885;55.848;35.916;2023-07-24T10:33:30;98360.56;;;20.10;64.86
76940;BME280;65885;55.848;35.916;2023-07-24T10:36:04;98351.97;;;20.16;65.53
76940;BME280;65885;55.848;35.916;2023-07-24T10:38:35;98357.38;;;20.24;65.40
76940;BME280;65885;55.848;35.916;2023-07-24T10:41:04;98351.53;;;20.20;65.30
76940;BME280;65885;55.848;35.916;2023-07-24T10:43:41;98341.25;;;20.08;65.26
76940;BME280;65885;55.848;35.916;2023-07-24T10:46:10;98344.06;;;19.88;65.81
76940;BME280;65885;55.848;35.916;2023-07-24T10:48:42;98351.44;;;19.67;66.08
76940;BME280;65885;55.848;35.916;2023-07-24T10:51:10;98350.66;;;19.47;66.71
76940;BME280;65885;55.848;35.916;2023-07-24T10:53:44;98345.44;;;19.28;67.35
76940;BME280;65885;55.848;35.916;2023-07-24T10:56:12;98351.38;;;19.12;67.96
76940;BME280;65885;55.848;35.916;2023-07-24T10:58:39;98342.28;;;18.95;68.47
76940;BME280;65885;55.848;35.916;2023-07-24T11:01:07;98335.50;;;18.83;68.90
76940;BME280;65885;55.848;35.916;2023-07-24T11:03:37;98331.16;;;18.72;69.53
76940;BME280;65885;55.848;35.916;2023-07-24T11:06:12;98334.50;;;18.65;70.06
76940;BME280;65885;55.848;35.916;2023-07-24T11:08:41;98327.94;;;18.59;70.32
76940;BME280;65885;55.848;35.916;2023-07-24T11:11:08;98330.88;;;18.56;70.64
76940;BME280;65885;55.848;35.916;2023-07-24T11:13:37;98325.84;;;18.53;70.95
76940;BME280;65885;55.848;35.916;2023-07-24T11:16:06;98332.25;;;18.50;71.28
76940;BME280;65885;55.848;35.916;2023-07-24T11:18:44;98337.03;;;18.47;71.16
76940;BME280;65885;55.848;35.916;2023-07-24T11:21:14;98329.63;;;18.41;71.31
76940;BME280;65885;55.848;35.916;2023-07-24T11:23:48;98321.38;;;18.34;71.44
76940;BME280;65885;55.848;35.916;2023-07-24T11:26:19;98327.81;;;18.32;72.03
76940;BME280;65885;55.848;35.916;2023-07-24T11:28:46;98327.41;;;18.46;72.84
76940;BME280;65885;55.848;35.916;2023-07-24T11:31:14;98325.00;;;18.72;72.96
76940;BME280;65885;55.848;35.916;2023-07-24T11:33:45;98319.63;;;19.01;72.21
76940;BME280;65885;55.848;35.916;2023-07-24T11:36:15;98311.72;;;19.28;71.38
76940;BME280;65885;55.848;35.916;2023-07-24T11:38:44;98324.31;;;19.54;70.47
76940;BME280;65885;55.848;35.916;2023-07-24T11:41:12;98309.97;;;19.74;69.84
76940;BME280;65885;55.848;35.916;2023-07-24T11:43:45;98313.47;;;19.92;69.67
76940;BME280;65885;55.848;35.916;2023-07-24T11:46:22;98313.50;;;20.10;69.35
76940;BME280;65885;55.848;35.916;2023-07-24T11:48:50;98309.44;;;20.24;69.17
76940;BME280;65885;55.848;35.916;2023-07-24T11:51:20;98303.59;;;20.38;68.76
76940;BME280;65885;55.848;35.916;2023-07-24T11:53:49;98298.06;;;20.49;68.30
76940;BME280;65885;55.848;35.916;2023-07-24T11:56:18;98305.28;;;20.57;67.72
76940;BME280;65885;55.848;35.916;2023-07-24T11:58:47;98310.34;;;20.68;67.48
76940;BME280;65885;55.848;35.916;2023-07-24T12:01:15;98298.91;;;20.76;67.52
76940;BME280;65885;55.848;35.916;2023-07-24T12:03:43;98298.97;;;20.84;67.18
76940;BME280;65885;55.848;35.916;2023-07-24T12:06:14;98296.34;;;20.92;67.15
76940;BME280;65885;55.848;35.916;2023-07-24T12:08:44;98305.38;;;20.99;67.07
76940;BME280;65885;55.848;35.916;2023-07-24T12:11:16;98295.25;;;21.03;66.44
76940;BME280;65885;55.848;35.916;2023-07-24T12:13:44;98297.75;;;21.04;66.12
76940;BME280;65885;55.848;35.916;2023-07-24T12:16:11;98306.59;;;21.05;65.58
76940;BME280;65885;55.848;35.916;2023-07-24T12:18:39;98312.09;;;21.03;65.26
76940;BME280;65885;55.848;35.916;2023-07-24T12:21:06;98314.09;;;21.01;65.01
76940;BME280;65885;55.848;35.916;2023-07-24T12:23:34;98305.59;;;21.06;65.00
76940;BME280;65885;55.848;35.916;2023-07-24T12:26:03;98317.63;;;21.10;64.74
76940;BME280;65885;55.848;35.916;2023-07-24T12:28:30;98309.97;;;21.15;64.59
76940;BME280;65885;55.848;35.916;2023-07-24T12:30:57;98316.34;;;21.22;64.47
76940;BME280;65885;55.848;35.916;2023-07-24T12:33:25;98309.59;;;21.28;64.34
76940;BME280;65885;55.848;35.916;2023-07-24T12:35:52;98310.94;;;21.32;64.10
76940;BME280;65885;55.848;35.916;2023-07-24T12:38:20;98316.13;;;21.33;63.88
76940;BME280;65885;55.848;35.916;2023-07-24T12:40:47;98327.25;;;21.29;63.59
76940;BME280;65885;55.848;35.916;2023-07-24T12:43:16;98320.69;;;21.23;63.94
76940;BME280;65885;55.848;35.916;2023-07-24T12:45:43;98317.31;;;21.13;63.71
76940;BME280;65885;55.848;35.916;2023-07-24T12:48:10;98298.94;;;21.02;64.03
76940;BME280;65885;55.848;35.916;2023-07-24T12:50:38;98305.34;;;20.91;64.47
76940;BME280;65885;55.848;35.916;2023-07-24T12:53:05;98296.63;;;20.81;64.53
76940;BME280;65885;55.848;35.916;2023-07-24T12:55:32;98295.91;;;20.71;64.67
76940;BME280;65885;55.848;35.916;2023-07-24T12:58:00;98306.78;;;20.60;64.59
76940;BME280;65885;55.848;35.916;2023-07-24T13:00:30;98303.91;;;20.53;64.76
76940;BME280;65885;55.848;35.916;2023-07-24T13:02:57;98304.22;;;20.50;65.49